Time;durP1;ratioP1;P1;durP2;ratioP2;P2;SDS_P1;SDS_P2;PMS_P1;PMS_P2;Temp;Humidity;BMP_temperature;BMP_pressure;BME280_temperature;BME280_humidity;BME280_pressure;Samples;Min_cycle;Max_cycle;Signal;HPM_P1;HPM_P2
2021/04/11 00:01:44;39083.00;0.13;68.30;0.00;0.00;0.62;;;;;18.10;1.00;;;;;;2264423;61;1002;-87
2021/04/11 00:04:10;83201.00;0.28;144.57;0.00;0.00;0.62;;;;;18.10;1.00;;;;;;2264348;61;2007;-86
2021/04/11 00:06:37;118009.00;0.39;204.65;0.00;0.00;0.62;;;;;18.10;1.00;;;;;;2264427;61;1708;-87
2021/04/11 00:09:05;172765.00;0.58;299.03;0.00;0.00;0.62;;;;;18.10;1.00;;;;;;2264415;61;911;-88
2021/04/11 00:11:32;177992.00;0.59;308.03;0.00;0.00;0.62;;;;;18.10;1.00;;;;;;2264378;61;1066;-87
2021/04/11 00:13:58;125683.00;0.42;217.88;0.00;0.00;0.62;;;;;18.00;1.00;;;;;;2264127;61;1568;-86
2021/04/11 00:16:25;80459.00;0.27;139.83;0.00;0.00;0.62;;;;;18.10;1.00;;;;;;2264294;61;1049;-87
2021/04/11 00:18:52;457306.00;1.52;788.35;85275.00;0.28;148.15;;;;;18.10;1.00;;;;;;2264419;61;1107;-87
2021/04/11 00:21:18;120438.00;0.40;208.84;0.00;0.00;0.62;;;;;18.20;1.00;;;;;;2264301;61;1734;-86
2021/04/11 00:23:46;95120.00;0.32;165.15;0.00;0.00;0.62;;;;;18.20;1.00;;;;;;2264256;61;1919;-87
2021/04/11 00:26:12;247043.00;0.82;426.87;5927.00;0.02;10.89;;;;;18.20;1.00;;;;;;2264335;61;1130;-87
2021/04/11 00:28:39;103071.00;0.34;178.87;0.00;0.00;0.62;;;;;18.10;1.00;;;;;;2264332;61;1112;-87
2021/04/11 00:31:05;141550.00;0.47;245.24;0.00;0.00;0.62;;;;;18.10;1.00;;;;;;2264319;61;1087;-88
2021/04/11 00:33:37;184177.00;0.61;318.68;0.00;0.00;0.62;;;;;18.10;1.00;;;;;;2264146;61;1313;-88
2021/04/11 00:36:06;119931.00;0.40;207.96;0.00;0.00;0.62;;;;;18.00;1.00;;;;;;2264387;61;917;-88
2021/04/11 00:38:33;109659.00;0.37;190.24;0.00;0.00;0.62;;;;;18.00;1.00;;;;;;2257256;61;980;-88
2021/04/11 00:41:10;178707.00;0.60;309.26;0.00;0.00;0.62;;;;;18.00;1.00;;;;;;2264354;61;1145;-88
2021/04/11 00:43:40;141105.00;0.47;244.48;0.00;0.00;0.62;;;;;17.50;1.00;;;;;;2264137;61;2012;-87
2021/04/11 00:46:22;68179.00;0.23;118.61;0.00;0.00;0.62;;;;;17.50;1.00;;;;;;2264295;61;1112;-87
2021/04/11 00:48:50;81542.00;0.27;141.70;0.00;0.00;0.62;;;;;17.70;1.00;;;;;;2264319;61;933;-87
2021/04/11 00:51:19;47170.00;0.16;82.29;0.00;0.00;0.62;;;;;17.70;1.00;;;;;;2264302;61;1087;-87
2021/04/11 00:53:46;108039.00;0.36;187.45;0.00;0.00;0.62;;;;;17.80;1.00;;;;;;2264249;61;1316;-87
2021/04/11 00:56:15;194401.00;0.65;336.29;0.00;0.00;0.62;;;;;17.90;1.00;;;;;;2264139;61;1600;-87
2021/04/11 00:58:42;54079.00;0.18;94.24;0.00;0.00;0.62;;;;;17.90;1.00;;;;;;2264256;61;1126;-87
2021/04/11 01:01:08;51054.00;0.17;89.01;0.00;0.00;0.62;;;;;18.00;1.00;;;;;;2264311;61;926;-87
2021/04/11 01:03:37;32321.00;0.11;56.60;0.00;0.00;0.62;;;;;18.00;1.00;;;;;;2264370;61;2004;-87
2021/04/11 01:06:07;87462.00;0.29;151.93;0.00;0.00;0.62;;;;;17.90;1.00;;;;;;2264311;61;1716;-87
2021/04/11 01:08:38;65951.00;0.22;114.76;0.00;0.00;0.62;;;;;17.90;1.00;;;;;;2254044;61;923;-87
2021/04/11 01:11:09;34011.00;0.11;59.53;0.00;0.00;0.62;;;;;17.90;1.00;;;;;;2264442;61;1030;-86
2021/04/11 01:13:41;55236.00;0.18;96.24;0.00;0.00;0.62;;;;;17.70;1.00;;;;;;2264419;61;1398;-88
2021/04/11 01:16:09;74403.00;0.25;129.37;0.00;0.00;0.62;;;;;17.80;1.00;;;;;;2264311;61;1559;-87
2021/04/11 01:18:36;196511.00;0.66;339.92;0.00;0.00;0.62;;;;;17.80;1.00;;;;;;2264368;61;1077;-88
2021/04/11 01:21:09;44668.00;0.15;77.96;0.00;0.00;0.62;;;;;17.90;1.00;;;;;;2264155;61;1114;-87
2021/04/11 01:23:48;138303.00;0.46;239.65;0.00;0.00;0.62;;;;;17.80;1.00;;;;;;2263566;61;1997;-87
2021/04/11 01:26:18;31513.00;0.11;55.20;0.00;0.00;0.62;;;;;17.90;1.00;;;;;;2264070;61;1027;-87
2021/04/11 01:28:47;94946.00;0.32;164.85;0.00;0.00;0.62;;;;;18.00;1.00;;;;;;2264164;61;1079;-88
2021/04/11 01:31:14;24596.00;0.08;43.23;0.00;0.00;0.62;;;;;17.90;1.00;;;;;;2264105;61;1257;-88
2021/04/11 01:33:44;87227.00;0.29;151.52;0.00;0.00;0.62;;;;;17.60;1.00;;;;;;2264076;61;1282;-88
2021/04/11 01:36:13;91830.00;0.31;159.47;0.00;0.00;0.62;;;;;17.50;1.00;;;;;;2264146;61;1128;-87
2021/04/11 01:38:44;40257.00;0.13;70.33;0.00;0.00;0.62;;;;;17.70;1.00;;;;;;2264103;61;1149;-88
2021/04/11 01:41:18;94803.00;0.32;164.60;0.00;0.00;0.62;;;;;17.80;1.00;;;;;;2264055;61;1732;-86
2021/04/11 01:43:45;94136.00;0.31;163.45;0.00;0.00;0.62;;;;;18.00;1.00;;;;;;2264122;61;2006;-88
2021/04/11 01:46:14;70568.00;0.24;122.74;0.00;0.00;0.62;;;;;18.10;1.00;;;;;;2264089;61;1421;-88
2021/04/11 01:48:42;27733.00;0.09;48.66;0.00;0.00;0.62;;;;;18.20;1.00;;;;;;2264124;61;1048;-88
2021/04/11 01:51:12;193424.00;0.64;334.60;0.00;0.00;0.62;;;;;18.00;1.00;;;;;;2264130;61;1111;-88
2021/04/11 01:53:40;43716.00;0.15;76.32;0.00;0.00;0.62;;;;;18.00;1.00;;;;;;2264099;61;1400;-88
2021/04/11 01:56:07;141998.00;0.47;246.02;0.00;0.00;0.62;;;;;17.70;1.00;;;;;;2264137;61;1056;-86
2021/04/11 01:58:37;83179.00;0.28;144.53;0.00;0.00;0.62;;;;;17.40;1.00;;;;;;2264247;61;1000;-87
2021/04/11 02:01:13;271887.00;0.91;469.59;23201.00;0.08;40.81;;;;;17.20;1.00;;;;;;2264246;61;942;-88
2021/04/11 02:03:39;137143.00;0.46;237.65;0.00;0.00;0.62;;;;;17.00;1.00;;;;;;2264133;61;1914;-87
2021/04/11 02:06:10;222325.00;0.74;384.34;0.00;0.00;0.62;;;;;16.40;1.00;;;;;;2264199;61;908;-88
2021/04/11 02:08:40;199471.00;0.66;345.01;14459.00;0.05;25.67;;;;;16.30;1.00;;;;;;2264208;61;1016;-89
2021/04/11 02:11:08;67558.00;0.23;117.54;0.00;0.00;0.62;;;;;16.70;1.00;;;;;;2264173;61;1074;-87
2021/04/11 02:13:38;169329.00;0.56;293.11;0.00;0.00;0.62;;;;;16.90;1.00;;;;;;2264117;61;1412;-88
2021/04/11 02:16:07;95042.00;0.32;165.01;0.00;0.00;0.62;;;;;16.90;1.00;;;;;;2264182;61;1095;-87
2021/04/11 02:18:35;114925.00;0.38;199.33;0.00;0.00;0.62;;;;;16.90;1.00;;;;;;2264210;61;1003;-88
2021/04/11 02:21:05;78730.00;0.26;136.84;0.00;0.00;0.62;;;;;16.90;1.00;;;;;;2264166;61;1770;-87
2021/04/11 02:23:32;145752.00;0.49;252.49;0.00;0.00;0.62;;;;;17.00;1.00;;;;;;2264118;61;1916;-88
2021/04/11 02:25:59;182769.00;0.61;316.26;0.00;0.00;0.62;;;;;17.00;1.00;;;;;;2264155;61;1023;-89
2021/04/11 02:28:28;120874.00;0.40;209.59;0.00;0.00;0.62;;;;;17.10;1.00;;;;;;2264112;61;1080;-88
2021/04/11 02:31:16;200020.00;0.67;345.96;0.00;0.00;0.62;;;;;17.10;1.00;;;;;;2264117;61;1768;-88
2021/04/11 02:33:43;331525.00;1.11;572.11;73384.00;0.24;127.61;;;;;17.10;1.00;;;;;;2263968;61;1241;-88
2021/04/11 02:36:09;316889.00;1.06;546.95;81133.00;0.27;140.99;;;;;16.90;1.00;;;;;;2264166;61;1171;-88
2021/04/11 02:38:36;325424.00;1.08;561.62;76870.00;0.26;133.63;;;;;17.00;1.00;;;;;;2263949;61;1068;-87
2021/04/11 02:41:02;207538.00;0.69;358.90;92039.00;0.31;159.83;;;;;17.20;1.00;;;;;;2264127;61;1090;-88
2021/04/11 02:43:29;57223.00;0.19;99.68;77620.00;0.26;134.93;;;;;17.20;1.00;;;;;;2264043;61;2006;-87
2021/04/11 02:45:59;116752024.00;389.17;64463724.00;0.00;0.00;0.62;;;;;17.20;1.00;;;;;;2264027;61;1139;-88
2021/04/11 02:48:26;272346.00;0.91;470.38;72459.00;0.24;126.01;;;;;17.10;1.00;;;;;;2264069;61;1051;-88
2021/04/11 02:50:52;247553.00;0.83;427.74;76544.00;0.26;133.07;;;;;17.40;1.00;;;;;;2264148;61;1009;-86
2021/04/11 02:53:24;21213.00;0.07;37.37;0.00;0.00;0.62;;;;;17.50;1.00;;;;;;2264105;61;1383;-88
2021/04/11 02:55:52;62618.00;0.21;109.00;0.00;0.00;0.62;;;;;17.50;1.00;;;;;;2264080;61;1655;-88
2021/04/11 02:58:20;73184.00;0.24;127.26;0.00;0.00;0.62;;;;;17.80;1.00;;;;;;2264125;61;1103;-88
2021/04/11 03:00:50;181798.00;0.61;314.59;0.00;0.00;0.62;;;;;17.80;1.00;;;;;;2264083;61;1115;-87
2021/04/11 03:03:18;330769.00;1.10;570.81;65196.00;0.22;113.46;;;;;18.00;1.00;;;;;;2264002;61;1411;-87
2021/04/11 03:05:45;102396.00;0.34;177.71;0.00;0.00;0.62;;;;;17.80;1.00;;;;;;2264093;61;938;-87
2021/04/11 03:08:16;116864048.00;389.55;64649624.00;116747632.00;389.16;64456456.00;;;;;17.70;1.00;;;;;;2263985;61;1125;-88
2021/04/11 03:10:50;100780.00;0.34;174.92;0.00;0.00;0.62;;;;;17.80;1.00;;;;;;2255422;61;1041;-88
2021/04/11 03:13:17;262012.00;0.87;452.61;80821.00;0.27;140.46;;;;;17.70;1.00;;;;;;2255360;61;1525;-88
2021/04/11 03:15:46;105920.00;0.35;183.79;0.00;0.00;0.62;;;;;17.50;1.00;;;;;;2255390;61;1091;-87
2021/04/11 03:18:13;110020.00;0.37;190.86;0.00;0.00;0.62;;;;;17.50;1.00;;;;;;2255503;61;1026;-88
2021/04/11 03:36:20;179305.00;0.60;310.29;0.00;0.00;0.62;;;;;18.10;1.00;;;;;;2508028;40;3556;31
2021/04/11 03:46:26;182434.00;0.61;315.68;0.00;0.00;0.62;;;;;18.20;1.00;;;;;;2274540;61;924;-89
2021/04/11 03:56:21;329000.00;1.10;567.77;0.00;0.00;0.62;;;;;16.60;1.00;;;;;;2279329;61;921;-90
2021/04/11 04:03:50;333745.00;1.11;575.92;76685.00;0.26;133.31;;;;;16.50;1.00;;;;;;2279279;61;1874;-89
2021/04/11 04:34:25;53510.00;0.18;93.26;0.00;0.00;0.62;;;;;17.20;1.00;;;;;;2278959;61;1299;-90
2021/04/11 04:54:24;110177.00;0.37;191.14;42615.00;0.14;74.41;;;;;16.30;1.00;;;;;;2278956;61;1124;-88
2021/04/11 05:04:22;2454.00;0.01;4.87;0.00;0.00;0.62;;;;;16.60;1.00;;;;;;2266882;61;1883;-90
2021/04/11 05:35:34;96597.00;0.32;167.70;5767.00;0.02;10.61;;;;;16.40;1.00;;;;;;2275230;61;908;-89
2021/04/11 05:53:02;211213.00;0.70;365.22;0.00;0.00;0.62;;;;;17.60;1.00;;;;;;2266561;61;901;-89
2021/04/11 06:02:58;406003.00;1.35;700.13;84027.00;0.28;145.99;;;;;17.80;1.00;;;;;;2266826;61;1285;-90
2021/04/11 06:26:09;723391.00;2.41;1247.83;1927.00;0.01;3.96;;;;;17.80;1.00;;;;;;2266821;61;954;-90
2021/04/11 06:38:47;299158.00;1.00;516.47;0.00;0.00;0.62;;;;;18.80;1.00;;;;;;2266883;61;931;-91
2021/04/11 07:16:14;430908.00;1.44;742.95;0.00;0.00;0.62;;;;;23.30;1.00;;;;;;2501116;55;3642;31
2021/04/11 07:24:25;250776.00;0.84;433.29;22696.00;0.08;39.94;;;;;24.50;1.00;;;;;;2274373;61;1268;-89
2021/04/11 07:59:19;749.00;0.00;1.92;0.00;0.00;0.62;;;;;21.20;1.00;;;;;;2503111;55;3588;31
2021/04/11 08:07:04;228430.00;0.76;394.85;73550.00;0.25;127.89;;;;;21.00;1.00;;;;;;2503640;40;3439;31
2021/04/11 09:18:57;111625.00;0.37;193.63;0.00;0.00;0.62;;;;;21.90;1.00;;;;;;2274853;61;1029;-90
2021/04/11 09:24:04;911099.00;3.04;1575.62;0.00;0.00;0.62;;;;;22.20;1.00;;;;;;2274004;61;1960;-91
2021/04/11 09:27:09;505509.00;1.69;871.31;84151.00;0.28;146.21;;;;;22.40;1.00;;;;;;2259809;61;989;-89
2021/04/11 09:30:11;344149.00;1.15;593.80;78806.00;0.26;136.97;;;;;21.90;1.00;;;;;;2256459;61;988;-91
2021/04/11 09:33:16;680924.00;2.27;1174.17;103888.00;0.35;180.28;;;;;21.70;1.00;;;;;;2251664;61;1303;-90
2021/04/11 09:35:59;448628.00;1.50;773.42;85946.00;0.29;149.31;;;;;21.90;1.00;;;;;;2235751;62;989;-90
2021/04/11 09:49:38;1263954.00;4.21;2206.29;16596.00;0.06;29.37;;;;;23.20;1.00;;;;;;2270186;61;1060;-91
2021/04/11 09:57:40;1034745.00;3.45;1794.11;0.00;0.00;0.62;;;;;23.60;1.00;;;;;;2269625;61;1235;-90
2021/04/11 10:08:16;793228.00;2.64;1369.32;0.00;0.00;0.62;;;;;23.00;1.00;;;;;;2270340;61;1211;-91
2021/04/11 10:10:59;242515.00;0.81;419.08;0.00;0.00;0.62;;;;;23.40;1.00;;;;;;2268100;61;1349;-88
2021/04/11 10:13:42;216508.00;0.72;374.33;0.00;0.00;0.62;;;;;24.30;1.00;;;;;;2268011;61;1002;-89
2021/04/11 10:16:23;209426.00;0.70;362.15;0.00;0.00;0.62;;;;;24.60;1.00;;;;;;2259426;61;1058;-89
2021/04/11 10:29:19;966737.00;3.22;1673.65;33299.00;0.11;58.29;;;;;23.50;1.00;;;;;;2269825;61;1334;-90
2021/04/11 10:34:35;416977.00;1.39;718.99;0.00;0.00;0.62;;;;;23.60;1.00;;;;;;2269779;61;1418;-90
2021/04/11 10:37:16;185108.00;0.62;320.29;0.00;0.00;0.62;;;;;23.70;1.00;;;;;;2259471;61;998;-91
2021/04/11 10:40:07;283443.00;0.94;489.46;0.00;0.00;0.62;;;;;23.60;1.00;;;;;;2255592;61;1037;-91
2021/04/11 10:45:26;328245.00;1.09;566.47;0.00;0.00;0.62;;;;;23.20;1.00;;;;;;2270136;61;1980;-92
2021/04/11 10:48:15;127349.00;0.42;220.76;0.00;0.00;0.62;;;;;23.40;1.00;;;;;;2267607;61;984;-91
2021/04/11 11:06:31;553061.00;1.84;953.24;0.00;0.00;0.62;;;;;24.50;1.00;;;;;;2274761;61;1980;-90
2021/04/11 11:09:18;450716.00;1.50;777.01;49730.00;0.17;86.72;;;;;24.00;1.00;;;;;;2272871;61;910;-92
2021/04/11 11:12:03;71916.00;0.24;125.07;0.00;0.00;0.62;;;;;24.60;1.00;;;;;;2264204;61;1440;-90
2021/04/11 11:15:05;145811.00;0.49;252.59;21051.00;0.07;37.09;;;;;24.50;1.00;;;;;;2244185;62;1112;-91
2021/04/11 11:18:09;235665.00;0.79;407.29;69366.00;0.23;120.66;;;;;24.40;1.00;;;;;;2231944;62;1033;-91
2021/04/11 11:20:48;409613.00;1.37;706.33;83180.00;0.28;144.53;;;;;24.30;1.00;;;;;;2236410;62;1398;-90
2021/04/11 11:24:00;169519.00;0.57;293.44;75118.00;0.25;130.60;;;;;24.30;1.00;;;;;;2236349;62;990;-90
2021/04/11 11:26:59;331292.00;1.10;571.71;79118.00;0.26;137.51;;;;;24.30;1.00;;;;;;2224687;62;989;-91
2021/04/11 11:29:52;216704.00;0.72;374.67;0.00;0.00;0.62;;;;;24.60;1.00;;;;;;2225991;62;1005;-90
2021/04/11 11:35:00;1141564.00;3.81;1984.92;190947.00;0.64;330.34;;;;;24.80;1.00;;;;;;2270474;61;1407;-88
2021/04/11 11:37:46;362205.00;1.21;624.84;86383.00;0.29;150.06;;;;;25.20;1.00;;;;;;2260067;61;1010;-89
2021/04/11 11:40:23;177211.00;0.59;306.69;73732.00;0.25;128.21;;;;;25.30;1.00;;;;;;2260214;61;1048;-88
2021/04/11 11:43:14;412867.00;1.38;711.93;79830.00;0.27;138.74;;;;;25.40;1.00;;;;;;2259957;61;1483;-89
2021/04/11 11:45:53;510899.00;1.70;880.59;0.00;0.00;0.62;;;;;25.50;1.00;;;;;;2260059;61;1915;-90
2021/04/11 11:48:37;512102.00;1.71;882.66;11139.00;0.04;19.92;;;;;25.60;1.00;;;;;;2259725;61;1016;-90
2021/04/11 11:51:14;142039.00;0.47;246.09;0.00;0.00;0.62;;;;;25.60;1.00;;;;;;2256029;61;1334;-88
2021/04/11 11:53:46;197904.00;0.66;342.32;0.00;0.00;0.62;;;;;25.50;1.00;;;;;;2255908;61;1106;-87
2021/04/11 11:56:23;494897.00;1.65;853.04;78906.00;0.26;137.15;;;;;25.50;1.00;;;;;;2262465;61;1158;-89
2021/04/11 11:58:58;503920.00;1.68;868.57;76128.00;0.25;132.35;;;;;25.50;1.00;;;;;;2257376;61;1177;-89
2021/04/11 12:01:52;527230.00;1.76;908.72;74713.00;0.25;129.90;;;;;25.90;1.00;;;;;;2263940;61;1465;-89
2021/04/11 12:04:50;454292.00;1.51;783.17;0.00;0.00;0.62;;;;;25.90;1.00;;;;;;2259851;61;1923;-92
2021/04/11 12:07:25;347256.00;1.16;599.14;67357.00;0.22;117.19;;;;;25.90;1.00;;;;;;2263665;61;1149;-88
2021/04/11 12:10:20;776585.00;2.59;1340.32;47471.00;0.16;82.81;;;;;25.30;1.00;;;;;;2256581;61;1030;-89
2021/04/11 12:13:15;218101.00;0.73;377.08;298.00;0.00;1.14;;;;;24.90;1.00;;;;;;2251764;61;1329;-89
2021/04/11 12:18:50;91094.00;0.30;158.20;6932.00;0.02;12.63;;;;;24.80;1.00;;;;;;2248100;61;1023;-90
2021/04/11 12:21:24;157365.00;0.52;272.50;0.00;0.00;0.62;;;;;24.90;1.00;;;;;;2247865;61;1413;-90
2021/04/11 12:24:06;455771.00;1.52;785.71;159679.00;0.53;276.49;;;;;24.40;1.00;;;;;;2240298;61;1057;-90
2021/04/11 12:34:24;829481.00;2.76;1432.59;0.00;0.00;0.62;;;;;24.70;1.00;;;;;;2274463;61;1151;-91
2021/04/11 12:37:05;314355.00;1.05;542.60;15478.00;0.05;27.44;;;;;24.70;1.00;;;;;;2272708;61;1151;-91
2021/04/11 12:40:03;193166.00;0.64;334.16;0.00;0.00;0.62;;;;;24.60;1.00;;;;;;2259917;61;1005;-90
2021/04/11 12:42:40;299551.00;1.00;517.15;0.00;0.00;0.62;;;;;24.50;1.00;;;;;;2252026;61;1418;-91
2021/04/11 12:50:55;590804.00;1.97;1018.34;0.00;0.00;0.62;;;;;24.90;1.00;;;;;;2278399;61;1173;-90
2021/04/11 12:54:08;148885.00;0.50;257.89;0.00;0.00;0.62;;;;;25.00;1.00;;;;;;2251962;61;1071;-92
2021/04/11 12:56:41;699554.00;2.33;1206.47;69840.00;0.23;121.48;;;;;25.10;1.00;;;;;;2251894;61;1019;-91
2021/04/11 12:59:16;459465.00;1.53;792.06;0.00;0.00;0.62;;;;;25.30;1.00;;;;;;2239761;62;1235;-91
2021/04/11 13:01:46;650899.00;2.17;1122.19;4575.00;0.02;8.55;;;;;25.10;1.00;;;;;;2233321;62;1445;-90
2021/04/11 13:04:25;515971.00;1.72;889.33;77840.00;0.26;135.31;;;;;25.00;1.00;;;;;;2240019;62;2011;-92
2021/04/11 13:07:02;553929.00;1.85;954.73;0.00;0.00;0.62;;;;;25.10;1.00;;;;;;2243487;61;1085;-90
2021/04/11 13:09:55;221367.00;0.74;382.70;0.00;0.00;0.62;;;;;24.90;1.00;;;;;;2240065;61;968;-91
2021/04/11 13:12:35;266298.00;0.89;459.98;0.00;0.00;0.62;;;;;25.00;1.00;;;;;;2247324;61;1451;-90
2021/04/11 13:15:12;386419.00;1.29;666.46;0.00;0.00;0.62;;;;;24.80;1.00;;;;;;2247919;62;992;-89
2021/04/11 13:17:44;451768.00;1.51;778.82;55989.00;0.19;97.54;;;;;25.10;1.00;;;;;;2242524;62;1011;-90
2021/04/11 13:20:20;172267.00;0.57;298.17;0.00;0.00;0.62;;;;;25.20;1.00;;;;;;2240380;62;1200;-89
2021/04/11 13:22:57;290648.00;0.97;501.84;0.00;0.00;0.62;;;;;25.30;1.00;;;;;;2243897;61;1452;-91
2021/04/11 13:25:33;263484.00;0.88;455.14;0.00;0.00;0.62;;;;;25.30;1.00;;;;;;2244018;61;2006;-91
2021/04/11 13:28:15;13860.00;0.05;24.64;0.00;0.00;0.62;;;;;24.90;1.00;;;;;;2240311;61;1191;-90
2021/04/11 13:30:48;49898.00;0.17;87.01;0.00;0.00;0.62;;;;;25.30;1.00;;;;;;2258736;61;1426;-91
2021/04/11 13:33:20;33822.00;0.11;59.20;0.00;0.00;0.62;;;;;25.60;1.00;;;;;;2252618;61;1066;-88
2021/04/11 13:35:56;196723.00;0.66;340.28;0.00;0.00;0.62;;;;;25.90;1.00;;;;;;2264375;61;1065;-88
2021/04/11 13:38:28;347510.00;1.16;599.58;0.00;0.00;0.62;;;;;26.10;1.00;;;;;;2267915;61;1038;-88
2021/04/11 13:41:08;145382.00;0.48;251.85;0.00;0.00;0.62;;;;;25.80;1.00;;;;;;2267796;61;1465;-91
2021/04/11 13:43:51;256410.00;0.85;442.97;0.00;0.00;0.62;;;;;25.60;1.00;;;;;;2267522;61;1014;-90
2021/04/11 13:46:34;62990.00;0.21;109.65;0.00;0.00;0.62;;;;;25.30;1.00;;;;;;2264129;61;1939;-91
2021/04/11 13:49:08;45469.00;0.15;79.35;0.00;0.00;0.62;;;;;25.20;1.00;;;;;;2262197;61;952;-89
2021/04/11 13:51:46;34644.00;0.12;60.62;0.00;0.00;0.62;;;;;25.20;1.00;;;;;;2263794;61;1271;-90
2021/04/11 13:54:26;166030.00;0.55;287.43;0.00;0.00;0.62;;;;;25.40;1.00;;;;;;2263719;61;996;-90
2021/04/11 13:57:18;482967.00;1.61;832.50;31426.00;0.10;55.05;;;;;25.50;1.00;;;;;;2263835;61;953;-91
2021/04/11 13:59:54;314336.00;1.05;542.56;0.00;0.00;0.62;;;;;25.00;1.00;;;;;;2263893;61;1031;-90
2021/04/11 14:02:29;298138.00;0.99;514.72;55764.00;0.19;97.15;;;;;25.00;1.00;;;;;;2263715;61;1474;-90
2021/04/11 14:05:06;275922.00;0.92;476.53;0.00;0.00;0.62;;;;;24.60;1.00;;;;;;2263768;61;2011;-89
2021/04/11 14:07:40;126738.00;0.42;219.70;0.00;0.00;0.62;;;;;24.70;1.00;;;;;;2270000;61;1174;-90
2021/04/11 14:10:15;342904.00;1.14;591.66;0.00;0.00;0.62;;;;;24.90;1.00;;;;;;2268447;61;1066;-90
2021/04/11 14:12:52;421607.00;1.41;726.95;0.00;0.00;0.62;;;;;25.10;1.00;;;;;;2272278;61;1447;-89
2021/04/11 14:15:25;132213.00;0.44;229.15;0.00;0.00;0.62;;;;;25.10;1.00;;;;;;2272314;61;940;-91
2021/04/11 14:20:56;141617152.00;472.06;115110176.00;0.00;0.00;0.62;;;;;25.10;1.00;;;;;;2259749;61;1440;-91
2021/04/11 14:23:40;238541.00;0.80;412.24;0.00;0.00;0.62;;;;;25.20;1.00;;;;;;2251709;61;966;-90
2021/04/11 14:26:16;68995.00;0.23;120.02;0.00;0.00;0.62;;;;;25.20;1.00;;;;;;2251331;61;2007;-90
2021/04/11 14:28:54;51546.00;0.17;89.86;0.00;0.00;0.62;;;;;25.10;1.00;;;;;;2251381;61;1122;-90
2021/04/11 14:31:28;240686.00;0.80;415.93;0.00;0.00;0.62;;;;;25.00;1.00;;;;;;2251542;61;1400;-90
2021/04/11 14:34:11;216484.00;0.72;374.29;0.00;0.00;0.62;;;;;25.00;1.00;;;;;;2251107;61;956;-91
2021/04/11 14:36:56;165942.00;0.55;287.28;0.00;0.00;0.62;;;;;25.10;1.00;;;;;;2247086;61;1134;-90
2021/04/11 14:40:28;229674.00;0.77;396.99;0.00;0.00;0.62;;;;;25.20;1.00;;;;;;2239474;62;991;-88
2021/04/11 14:43:01;389260.00;1.30;671.34;83855.00;0.28;145.70;;;;;24.90;1.00;;;;;;2227750;62;1417;-90
2021/04/11 14:45:31;535844.00;1.79;923.56;78912.00;0.26;137.16;;;;;25.30;1.00;;;;;;2227504;62;2002;-89
2021/04/11 14:48:06;425812.00;1.42;734.18;75748.00;0.25;131.69;;;;;25.50;1.00;;;;;;2231540;62;1026;-88
2021/04/11 14:50:49;360784.00;1.20;622.40;72220.00;0.24;125.60;;;;;25.60;1.00;;;;;;2227727;62;1438;-91
2021/04/11 14:53:28;547523.00;1.83;943.69;79831.00;0.27;138.75;;;;;25.70;1.00;;;;;;2224028;62;1025;-91
2021/04/11 14:56:02;442864.00;1.48;763.51;80338.00;0.27;139.62;;;;;25.30;1.00;;;;;;2223949;62;1040;-90
2021/04/11 14:58:39;565429.00;1.88;974.56;75210.00;0.25;130.76;;;;;25.30;1.00;;;;;;2230474;62;1066;-90
2021/04/11 15:01:46;459437.00;1.53;792.02;120544.00;0.40;209.02;;;;;25.40;1.00;;;;;;2231770;62;1387;-90
2021/04/11 15:05:03;596248.00;1.99;1027.74;0.00;0.00;0.62;;;;;25.60;1.00;;;;;;2232325;62;1174;-88
2021/04/11 15:11:26;186765.00;0.62;323.14;0.00;0.00;0.62;;;;;25.40;1.00;;;;;;2227614;62;1447;-92
2021/04/11 15:17:31;565792.00;1.89;975.19;0.00;0.00;0.62;;;;;24.80;1.00;;;;;;2222390;62;1140;-90
2021/04/11 15:20:13;599593.00;2.00;1033.52;17864.00;0.06;31.57;;;;;24.30;1.00;;;;;;2231722;62;1050;-90
2021/04/11 15:23:00;789161.00;2.63;1362.23;33709.00;0.11;59.00;;;;;23.80;1.00;;;;;;2228818;62;1794;-89
2021/04/11 15:25:55;213410.00;0.71;369.00;0.00;0.00;0.62;;;;;23.50;1.00;;;;;;2227706;62;1925;-90
2021/04/11 15:28:34;228855.00;0.76;395.58;0.00;0.00;0.62;;;;;23.00;1.00;;;;;;2227888;62;1705;-87
2021/04/11 15:31:16;257610.00;0.86;445.04;17511.00;0.06;30.96;;;;;22.00;1.00;;;;;;2228252;62;1657;-87
2021/04/11 15:34:05;94696.00;0.32;164.42;0.00;0.00;0.62;;;;;21.10;1.00;;;;;;2232513;62;1121;-87
2021/04/11 15:36:43;178076.00;0.59;308.18;28734.00;0.10;50.39;;;;;20.90;1.00;;;;;;2239732;62;1186;-86
2021/04/11 15:39:20;211427.00;0.70;365.59;20210.00;0.07;35.63;;;;;20.30;1.00;;;;;;2239581;62;1114;-88
2021/04/11 15:42:04;87082.00;0.29;151.27;0.00;0.00;0.62;;;;;20.40;1.00;;;;;;2239417;62;1639;-86
2021/04/11 15:44:42;60849.00;0.20;105.94;0.00;0.00;0.62;;;;;20.70;1.00;;;;;;2247781;61;1999;-87
2021/04/11 15:47:23;139103.00;0.46;241.02;0.00;0.00;0.62;;;;;20.80;1.00;;;;;;2256153;61;1164;-86
2021/04/11 15:49:58;194347.00;0.65;336.19;0.00;0.00;0.62;;;;;20.10;1.00;;;;;;2256078;61;1064;-86
2021/04/11 15:52:36;176402.00;0.59;305.29;0.00;0.00;0.62;;;;;19.10;1.00;;;;;;2256099;61;1411;-86
2021/04/11 15:55:11;382262.00;1.27;659.31;0.00;0.00;0.62;;;;;18.30;1.00;;;;;;2270162;61;1900;-86
2021/04/11 15:57:45;186774.00;0.62;323.15;0.00;0.00;0.62;;;;;18.00;1.00;;;;;;2272704;61;1023;-86
2021/04/11 16:00:18;216733.00;0.72;374.72;0.00;0.00;0.62;;;;;18.00;1.00;;;;;;2272621;61;898;-86
2021/04/11 16:03:03;405178.00;1.35;698.71;12630.00;0.04;22.51;;;;;17.50;1.00;;;;;;2272577;61;1415;-87
2021/04/11 16:05:36;232912.00;0.78;402.56;30966.00;0.10;54.26;;;;;17.00;1.00;;;;;;2272528;61;1984;-86
2021/04/11 16:08:07;305377.00;1.02;527.16;46065.00;0.15;80.38;;;;;17.10;1.00;;;;;;2272626;61;1013;-86
2021/04/11 16:10:38;90655.00;0.30;157.44;0.00;0.00;0.62;;;;;17.30;1.00;;;;;;2272570;61;1712;-87
2021/04/11 16:13:27;125722.00;0.42;217.95;0.00;0.00;0.62;;;;;17.70;1.00;;;;;;2272633;61;1076;-86
2021/04/11 16:16:08;98185.00;0.33;170.44;0.00;0.00;0.62;;;;;17.80;1.00;;;;;;2272128;61;1164;-86
2021/04/11 16:18:56;191006.00;0.64;330.44;0.00;0.00;0.62;;;;;17.90;1.00;;;;;;2272680;61;1061;-86
2021/04/11 16:21:46;82090.00;0.27;142.65;0.00;0.00;0.62;;;;;17.90;1.00;;;;;;2272631;61;1480;-87
2021/04/11 16:24:40;384862.00;1.28;663.78;69274.00;0.23;120.51;;;;;17.70;1.00;;;;;;2272605;61;1102;-86
2021/04/11 16:27:17;423003.00;1.41;729.35;77878.00;0.26;135.37;;;;;17.80;1.00;;;;;;2272558;61;1143;-87
2021/04/11 16:29:52;386671.00;1.29;666.89;81321.00;0.27;141.32;;;;;17.90;1.00;;;;;;2272515;61;1094;-86
2021/04/11 16:32:30;114725.00;0.38;198.98;0.00;0.00;0.62;;;;;18.10;1.00;;;;;;2272477;61;1461;-86
2021/04/11 16:35:09;272147.00;0.91;470.04;43336.00;0.14;75.66;;;;;17.80;1.00;;;;;;2272524;61;1088;-86
2021/04/11 16:37:53;120166.00;0.40;208.37;0.00;0.00;0.62;;;;;17.90;1.00;;;;;;2272490;61;1113;-86
2021/04/11 16:40:26;430906.00;1.44;742.94;115857.00;0.39;200.94;;;;;18.00;1.00;;;;;;2272540;61;1101;-87
2021/04/11 16:43:03;396143.00;1.32;683.17;77115.00;0.26;134.05;;;;;18.00;1.00;;;;;;2272397;61;1465;-86
2021/04/11 16:45:41;122671.00;0.41;212.69;0.00;0.00;0.62;;;;;18.10;1.00;;;;;;2272450;61;1949;-87
2021/04/11 16:48:18;128356856.00;427.86;85682992.00;0.00;0.00;0.62;;;;;17.70;1.00;;;;;;2272347;61;1115;-87
2021/04/11 16:50:50;398667.00;1.33;687.51;68863.00;0.23;119.80;;;;;17.80;1.00;;;;;;2272416;61;1384;-87
2021/04/11 16:53:25;600811.00;2.00;1035.62;102496.00;0.34;177.88;;;;;17.80;1.00;;;;;;2272382;61;1030;-86
2021/04/11 16:56:03;313894.00;1.05;541.80;77640.00;0.26;134.96;;;;;17.60;1.00;;;;;;2272434;61;1036;-86
2021/04/11 16:58:37;159769.00;0.53;276.64;0.00;0.00;0.62;;;;;17.50;1.00;;;;;;2272389;61;1067;-87
2021/04/11 17:01:26;120018.00;0.40;208.11;0.00;0.00;0.62;;;;;17.30;1.00;;;;;;2272396;61;1548;-86
2021/04/11 17:04:06;282602.00;0.94;488.01;69036.00;0.23;120.09;;;;;16.70;1.00;;;;;;2272472;61;1152;-86
2021/04/11 17:06:49;378092.00;1.26;652.15;74598.00;0.25;129.71;;;;;17.00;1.00;;;;;;2272439;61;1997;-86
2021/04/11 17:09:18;981319.00;3.27;1699.41;105482.00;0.35;183.03;;;;;17.20;1.00;;;;;;2272394;61;1052;-86
2021/04/11 17:11:51;700435.00;2.33;1207.99;127680.00;0.43;221.33;;;;;17.30;1.00;;;;;;2272396;61;1401;-89